Terminal Aerodrome Forecast
Issued by NWS Charleston, WV

Current Version | Previous Version | Graphics & Text | Print | Product List | Glossary On
Versions: 1 2 3 4 5 6 7 8 9 10 11 12 13 14 15 16 17 18 19 20 21 22 23 24 25 26
634
FTUS41 KRLX 300808 AAA
TAFPKB
TAF AMD
KPKB 300808Z 3008/3106 00000KT 1/4SM FG VV001
     FM301000 00000KT 1SM BR BKN001
     FM301200 00000KT 3SM BR SCT001 BKN090
     FM301300 VRB02KT 6SM BR BKN090
     FM301400 27004KT P6SM SCT090
     FM301700 33006KT P6SM SCT050
     FM310000 33002KT P6SM SCT250=

USA.gov is the U.S. government's official web portal to all federal, state and local government web resources and services.